Time;durP1;ratioP1;P1;durP2;ratioP2;P2;SDS_P1;SDS_P2;PMS_P1;PMS_P2;Temp;Humidity;BMP_temperature;BMP_pressure;BME280_temperature;BME280_humidity;BME280_pressure;Samples;Min_cycle;Max_cycle;Signal;HPM_P1;HPM_P2
2023/05/12 00:01:56;;;;;;;10.40;9.50;;;10.90;99.90;;;11.58;100.00;97621.25;5113989;28;20208;-64
2023/05/12 00:04:29;;;;;;;10.30;9.40;;;10.90;99.90;;;11.60;100.00;97604.31;5108109;28;20331;-64
2023/05/12 00:07:05;;;;;;;11.50;10.45;;;10.90;99.90;;;11.56;100.00;97612.66;5107050;28;20232;-63
2023/05/12 00:09:37;;;;;;;10.82;9.93;;;10.90;99.90;;;11.50;100.00;97612.31;5109434;28;20230;-64
2023/05/12 00:12:12;;;;;;;10.48;9.57;;;10.80;99.90;;;11.50;100.00;97608.09;5105759;28;20209;-64
2023/05/12 00:14:45;;;;;;;10.90;9.95;;;10.90;99.90;;;11.52;100.00;97608.16;5113654;28;20679;-64
2023/05/12 00:17:18;;;;;;;12.02;10.82;;;10.90;99.90;;;11.51;100.00;97611.53;5109511;28;20202;-62
2023/05/12 00:19:51;;;;;;;11.20;10.20;;;10.80;99.90;;;11.43;100.00;97610.28;5104083;28;20313;-63
2023/05/12 00:22:25;;;;;;;11.55;10.55;;;10.70;99.90;;;11.42;100.00;97614.53;5111919;28;20208;-64
2023/05/12 00:24:58;;;;;;;13.77;12.48;;;10.80;99.90;;;11.35;100.00;97612.44;5108008;28;20213;-64
2023/05/12 00:27:32;;;;;;;12.52;11.43;;;10.70;99.90;;;11.22;100.00;97610.09;5108088;28;20237;-64
2023/05/12 00:30:07;;;;;;;11.88;10.88;;;10.60;99.90;;;11.22;100.00;97605.84;5107902;28;20311;-63
2023/05/12 00:32:40;;;;;;;13.18;11.98;;;10.60;99.90;;;11.16;100.00;97604.66;5110739;28;20208;-64
2023/05/12 00:35:14;;;;;;;12.88;11.77;;;10.60;99.90;;;11.20;100.00;97604.88;5111277;28;20695;-64
2023/05/12 00:37:47;;;;;;;12.25;11.15;;;10.60;99.90;;;11.09;100.00;97602.59;5115953;29;20209;-63
2023/05/12 00:40:20;;;;;;;11.45;10.55;;;10.50;99.90;;;11.16;100.00;97602.09;5108855;28;20632;-63
2023/05/12 00:42:55;;;;;;;11.95;10.85;;;10.60;99.90;;;11.18;100.00;97609.03;5109263;28;20208;-64
2023/05/12 00:45:29;;;;;;;10.45;9.55;;;10.60;99.90;;;11.24;100.00;97605.91;5113738;28;20211;-63
2023/05/12 00:48:03;;;;;;;11.25;10.30;;;10.60;99.90;;;11.33;100.00;97603.84;5120562;28;20246;-64
2023/05/12 00:50:36;;;;;;;10.10;9.20;;;10.70;99.90;;;11.36;100.00;97600.53;5115755;28;20223;-63
2023/05/12 00:53:10;;;;;;;9.88;9.07;;;10.70;99.90;;;11.38;100.00;97598.94;5115187;28;20670;-64
2023/05/12 00:55:43;;;;;;;10.25;9.45;;;10.70;99.90;;;11.37;100.00;97602.31;5113850;28;20527;-63
2023/05/12 00:58:18;;;;;;;11.48;10.48;;;10.70;99.90;;;11.25;100.00;97600.88;5114642;28;20216;-64
2023/05/12 01:00:51;;;;;;;12.27;11.27;;;10.60;99.90;;;11.27;100.00;97599.28;5113553;28;20699;-63
2023/05/12 01:03:24;;;;;;;12.25;11.15;;;10.60;99.90;;;11.23;100.00;97596.50;5113433;28;20315;-63
2023/05/12 01:06:08;;;;;;;11.63;10.63;;;10.60;99.90;;;11.26;100.00;97600.06;5116205;28;20205;-64
2023/05/12 01:08:41;;;;;;;12.98;11.77;;;10.60;99.90;;;11.28;100.00;97595.91;5115522;28;20197;-63
2023/05/12 01:11:14;;;;;;;13.30;12.10;;;10.60;99.90;;;11.23;100.00;97597.38;5118089;28;20213;-64
2023/05/12 01:13:48;;;;;;;14.15;12.90;;;10.60;99.90;;;11.12;100.00;97598.50;5109683;28;20207;-63
2023/05/12 01:16:27;;;;;;;12.57;11.45;;;10.50;99.90;;;11.16;100.00;97590.19;5114994;28;20322;-63
2023/05/12 01:19:05;;;;;;;13.85;12.65;;;10.60;99.90;;;11.21;100.00;97604.06;5108621;28;20224;-64
2023/05/12 01:21:39;;;;;;;17.27;15.77;;;10.60;99.90;;;11.21;100.00;97598.09;5114627;28;20269;-64
2023/05/12 01:24:14;;;;;;;15.50;14.07;;;10.60;99.90;;;11.21;100.00;97600.66;5117963;28;20653;-64
2023/05/12 01:26:49;;;;;;;15.80;14.30;;;10.60;99.90;;;11.23;100.00;97597.38;5113339;28;20661;-64
2023/05/12 01:29:22;;;;;;;13.90;12.60;;;10.60;99.90;;;11.28;100.00;97595.06;5114466;28;20315;-64
2023/05/12 01:31:55;;;;;;;15.95;14.55;;;10.60;99.90;;;11.42;100.00;97598.28;5112167;28;20569;-63
2023/05/12 01:34:28;;;;;;;14.98;13.63;;;10.60;99.90;;;11.39;100.00;97598.13;5114190;28;20610;-64
2023/05/12 01:37:01;;;;;;;14.73;13.38;;;10.70;99.90;;;11.35;100.00;97593.66;5109665;28;20202;-62
2023/05/12 01:39:35;;;;;;;15.88;14.38;;;10.70;99.90;;;11.34;100.00;97589.34;5116759;28;20235;-64
2023/05/12 01:42:09;;;;;;;15.10;13.68;;;10.70;99.90;;;11.32;100.00;97589.28;5114476;28;20201;-64
2023/05/12 01:44:42;;;;;;;14.77;13.38;;;10.70;99.90;;;11.24;100.00;97588.88;5118369;28;20258;-64
2023/05/12 01:47:15;;;;;;;15.18;13.68;;;10.60;99.90;;;11.23;100.00;97596.50;5112425;28;20595;-64
2023/05/12 01:49:48;;;;;;;12.32;11.23;;;10.50;99.90;;;11.19;100.00;97589.47;5116927;28;20235;-62
2023/05/12 01:52:21;;;;;;;14.45;12.95;;;10.50;99.90;;;11.20;100.00;97594.66;5115306;28;20201;-64
2023/05/12 01:54:54;;;;;;;14.85;13.45;;;10.60;99.90;;;11.21;100.00;97587.84;5109828;28;20224;-63
2023/05/12 01:57:28;;;;;;;14.38;13.00;;;10.60;99.90;;;11.20;100.00;97594.66;5116801;28;20204;-64
2023/05/12 02:00:02;;;;;;;15.25;13.88;;;10.50;99.90;;;11.17;100.00;97596.19;5112437;28;20223;-64
2023/05/12 02:02:35;;;;;;;15.45;13.95;;;10.50;99.90;;;11.04;100.00;97594.69;5111773;28;20205;-63
2023/05/12 02:05:09;;;;;;;14.40;13.00;;;10.40;99.90;;;11.06;100.00;97593.09;5110138;28;20276;-64
2023/05/12 02:07:42;;;;;;;12.55;11.45;;;10.40;99.90;;;10.97;100.00;97595.19;5107500;28;20240;-63
2023/05/12 02:10:15;;;;;;;13.43;12.13;;;10.30;99.90;;;11.00;100.00;97598.75;5113518;28;20252;-64
2023/05/12 02:12:49;;;;;;;13.48;12.27;;;10.40;99.90;;;10.94;100.00;97595.03;5119409;28;20207;-63
2023/05/12 02:15:23;;;;;;;12.80;11.50;;;10.30;99.90;;;10.95;100.00;97600.19;5113328;28;20200;-63
2023/05/12 02:17:57;;;;;;;13.52;12.32;;;10.30;99.90;;;11.02;100.00;97597.16;5113871;28;20648;-62
2023/05/12 02:20:30;;;;;;;12.32;11.20;;;10.40;99.90;;;11.00;100.00;97596.22;5111893;28;20236;-64
2023/05/12 02:23:03;;;;;;;10.60;9.70;;;10.40;99.90;;;11.00;100.00;97592.78;5110089;28;20209;-64
2023/05/12 02:25:36;;;;;;;11.85;10.82;;;10.40;99.90;;;11.03;100.00;97598.91;5113217;28;20204;-63
2023/05/12 02:28:10;;;;;;;11.57;10.57;;;10.40;99.90;;;11.01;100.00;97599.63;5114003;29;20209;-64
2023/05/12 02:30:47;;;;;;;13.60;12.20;;;10.40;99.90;;;10.94;100.00;97592.47;5112954;28;20256;-65
2023/05/12 02:33:21;;;;;;;12.05;11.00;;;10.30;99.90;;;10.99;100.00;97598.69;5109318;28;20208;-64
2023/05/12 02:35:55;;;;;;;12.15;11.07;;;10.30;99.90;;;11.04;100.00;97593.03;5110514;28;20207;-63
2023/05/12 02:38:28;;;;;;;12.75;11.65;;;10.40;99.90;;;11.07;100.00;97604.19;5112498;28;20204;-64
2023/05/12 02:41:01;;;;;;;12.57;11.45;;;10.40;99.90;;;11.07;100.00;97593.94;5112733;28;20632;-62
2023/05/12 02:43:35;;;;;;;12.10;11.05;;;10.40;99.90;;;11.09;100.00;97598.34;5108055;28;20218;-63
2023/05/12 02:46:08;;;;;;;11.93;11.02;;;10.40;99.90;;;11.13;100.00;97594.25;5114135;28;20578;-64
2023/05/12 02:48:41;;;;;;;10.65;9.68;;;10.40;99.90;;;11.13;100.00;97590.06;5112995;28;20236;-64
2023/05/12 02:51:14;;;;;;;12.30;11.20;;;10.40;99.90;;;11.15;100.00;97590.09;5114096;28;20208;-63
2023/05/12 02:53:48;;;;;;;11.95;10.95;;;10.50;99.90;;;11.15;100.00;97592.66;5110330;28;20204;-64
2023/05/12 02:56:21;;;;;;;12.93;11.57;;;10.40;99.90;;;11.15;100.00;97590.09;5112939;28;20203;-64
2023/05/12 02:58:55;;;;;;;11.65;10.65;;;10.50;99.90;;;11.17;100.00;97586.81;5116721;28;20241;-63
2023/05/12 03:01:28;;;;;;;11.93;10.90;;;10.50;99.90;;;11.18;100.00;97588.56;5103069;28;20201;-63
2023/05/12 03:04:01;;;;;;;11.95;10.85;;;10.50;99.90;;;11.19;100.00;97586.91;5110226;28;20675;-64
2023/05/12 03:06:34;;;;;;;11.30;10.30;;;10.50;99.90;;;11.17;100.00;97588.50;5111434;28;20209;-63
2023/05/12 03:09:07;;;;;;;13.48;11.98;;;10.50;99.90;;;11.16;100.00;97595.31;5104932;28;20229;-64
2023/05/12 03:11:40;;;;;;;11.32;10.32;;;10.50;99.90;;;11.14;100.00;97591.78;5114662;28;20213;-64
2023/05/12 03:14:15;;;;;;;11.77;10.63;;;10.50;99.90;;;11.17;100.00;97586.81;5116048;28;20259;-63
2023/05/12 03:16:48;;;;;;;11.50;10.55;;;10.50;99.90;;;11.19;100.00;97585.25;5108158;29;20215;-64
2023/05/12 03:19:21;;;;;;;11.75;10.65;;;10.50;99.90;;;11.22;100.00;97595.63;5105659;28;20325;-64
2023/05/12 03:21:54;;;;;;;13.40;12.10;;;10.50;99.90;;;11.18;100.00;97588.56;5114428;28;20902;-63
2023/05/12 03:24:27;;;;;;;14.32;12.93;;;10.60;99.90;;;11.20;100.00;97596.34;5119622;28;20660;-64
2023/05/12 03:27:01;;;;;;;12.43;11.23;;;10.50;99.90;;;11.23;100.00;97597.38;5106066;28;20669;-64
2023/05/12 03:29:35;;;;;;;11.95;10.85;;;10.60;99.90;;;11.24;100.00;97588.88;5106580;28;20705;-63
2023/05/12 03:32:08;;;;;;;12.73;11.32;;;10.60;99.90;;;11.25;100.00;97584.66;5107914;28;20207;-63
2023/05/12 03:34:41;;;;;;;13.05;11.88;;;10.50;99.90;;;11.23;100.00;97587.13;5111893;28;20208;-63
2023/05/12 03:37:15;;;;;;;13.48;12.25;;;10.60;99.90;;;11.17;100.00;97591.06;5110621;28;20776;-64
2023/05/12 03:39:48;;;;;;;14.10;12.77;;;10.50;99.90;;;11.17;100.00;97586.81;5108970;28;20224;-62
2023/05/12 03:42:21;;;;;;;13.65;12.45;;;10.50;99.90;;;11.22;100.00;97590.50;5115980;28;20205;-63
2023/05/12 03:44:55;;;;;;;13.60;12.40;;;10.50;99.90;;;11.22;100.00;97595.63;5113103;28;20201;-64
2023/05/12 03:47:28;;;;;;;13.25;12.02;;;10.50;99.90;;;11.20;100.00;97584.41;5139771;28;20204;-61
2023/05/12 03:50:01;;;;;;;14.70;13.30;;;10.50;99.90;;;11.22;100.00;97590.50;5108557;28;20639;-63
2023/05/12 03:52:37;;;;;;;13.23;11.93;;;10.60;99.90;;;11.23;100.00;97587.13;5110330;28;20280;-64
2023/05/12 03:55:10;;;;;;;12.82;11.73;;;10.50;99.90;;;11.26;100.00;97582.16;5113228;28;20204;-63
2023/05/12 03:57:43;;;;;;;14.25;12.88;;;10.60;99.90;;;11.28;100.00;97580.56;5107513;28;20205;-64
2023/05/12 04:00:19;;;;;;;13.48;12.32;;;10.50;99.90;;;11.27;100.00;97581.38;5108418;29;20296;-63
2023/05/12 04:02:52;;;;;;;13.40;12.18;;;10.60;99.90;;;11.28;100.00;97588.25;5109713;28;20204;-64
2023/05/12 04:05:25;;;;;;;13.20;11.90;;;10.60;99.90;;;11.32;100.00;97585.84;5111776;28;20205;-63
2023/05/12 04:07:58;;;;;;;13.38;12.27;;;10.60;99.90;;;11.32;100.00;97584.16;5108122;28;20196;-64
2023/05/12 04:10:31;;;;;;;12.82;11.73;;;10.60;99.90;;;11.31;100.00;97584.09;5101226;28;20735;-64
2023/05/12 04:13:04;;;;;;;12.25;11.15;;;10.60;99.90;;;11.34;100.00;97581.69;5104981;28;20212;-64
2023/05/12 04:15:39;;;;;;;12.55;11.48;;;10.60;99.90;;;11.34;100.00;97581.69;5111032;29;20211;-64
2023/05/12 04:18:13;;;;;;;11.77;10.68;;;10.60;99.90;;;11.35;100.00;97586.00;5109386;28;20205;-64
2023/05/12 04:20:46;;;;;;;11.75;10.73;;;10.60;99.90;;;11.34;100.00;97579.13;5102129;29;20228;-64
2023/05/12 04:23:19;;;;;;;11.55;10.48;;;10.60;99.90;;;11.31;100.00;97584.09;5108706;28;20220;-64
2023/05/12 04:25:52;;;;;;;11.07;10.07;;;10.60;99.90;;;11.33;100.00;97592.69;5107033;28;20675;-64
2023/05/12 04:28:25;;;;;;;13.77;12.45;;;10.60;99.90;;;11.31;100.00;97590.09;5106630;28;20229;-64
2023/05/12 04:31:04;;;;;;;14.25;12.50;;;10.60;99.90;;;11.33;100.00;97602.94;5113380;28;20229;-64
2023/05/12 04:33:37;;;;;;;12.48;11.30;;;10.60;99.90;;;11.31;100.00;97592.63;5105027;28;20209;-64
2023/05/12 04:36:12;;;;;;;13.13;11.88;;;10.60;99.90;;;11.36;100.00;97604.00;5109039;28;20200;-64
2023/05/12 04:38:45;;;;;;;12.82;11.65;;;10.60;99.90;;;11.36;100.00;97604.00;5106488;28;20571;-64
2023/05/12 04:41:18;;;;;;;12.93;11.73;;;10.70;99.90;;;11.37;100.00;97602.31;5110075;28;20200;-64
2023/05/12 04:43:51;;;;;;;13.18;11.90;;;10.60;99.90;;;11.40;100.00;97610.13;5106862;28;20205;-63
2023/05/12 04:46:28;;;;;;;14.23;12.93;;;10.70;99.90;;;11.46;100.00;97611.31;5111545;28;20758;-63
2023/05/12 04:49:01;;;;;;;13.82;12.63;;;10.70;99.90;;;11.47;100.00;97607.97;5112490;28;20231;-63
2023/05/12 04:51:40;;;;;;;12.13;11.02;;;10.70;99.90;;;11.46;100.00;97607.88;5104322;28;20673;-64
2023/05/12 04:54:13;;;;;;;12.80;11.68;;;10.70;99.90;;;11.51;100.00;97611.53;5109552;28;20829;-63
2023/05/12 04:56:46;;;;;;;13.35;12.05;;;10.70;99.90;;;11.48;100.00;97607.16;5112716;28;20657;-64
2023/05/12 04:59:19;;;;;;;13.38;12.07;;;10.70;99.90;;;11.46;100.00;97606.19;5107342;28;20738;-63
2023/05/12 05:01:54;;;;;;;12.15;11.05;;;10.70;99.90;;;11.50;100.00;97612.31;5110084;29;20220;-65
2023/05/12 05:04:27;;;;;;;11.63;10.63;;;10.80;99.90;;;11.54;100.00;97613.38;5098791;28;20205;-62
2023/05/12 05:07:00;;;;;;;12.43;11.32;;;10.80;99.90;;;11.53;100.00;97617.59;5104019;28;20343;-63
2023/05/12 05:09:33;;;;;;;12.57;11.45;;;10.80;99.90;;;11.54;100.00;97614.25;5108580;28;20229;-65
2023/05/12 05:12:09;;;;;;;13.15;11.98;;;10.80;99.90;;;11.58;100.00;97616.13;5109526;28;20228;-62
2023/05/12 05:14:43;;;;;;;14.35;13.05;;;10.90;99.90;;;11.60;100.00;97614.53;5106611;28;20201;-64
2023/05/12 05:17:19;;;;;;;15.55;14.05;;;10.90;99.90;;;11.65;100.00;97619.91;5103762;28;20205;-63
2023/05/12 05:19:53;;;;;;;14.52;13.15;;;10.90;99.90;;;11.69;100.00;97620.09;5106208;28;20332;-63
2023/05/12 05:22:31;;;;;;;15.13;13.82;;;10.90;99.90;;;11.79;100.00;97620.53;5107544;28;20205;-64
2023/05/12 05:25:07;;;;;;;14.70;13.32;;;11.00;99.90;;;11.82;100.00;97620.72;5107843;28;20675;-64
2023/05/12 05:27:40;;;;;;;14.43;13.13;;;11.00;99.90;;;11.78;100.00;97619.66;5098372;28;20673;-63
2023/05/12 05:30:13;;;;;;;14.38;13.10;;;11.00;99.90;;;11.77;100.00;97623.03;5108654;29;20656;-62
2023/05/12 05:32:48;;;;;;;15.50;14.10;;;11.00;99.90;;;11.75;100.00;97619.53;5105365;28;20208;-64
2023/05/12 05:35:21;;;;;;;15.75;14.10;;;11.00;99.90;;;11.75;100.00;97621.22;5112571;28;20204;-63
2023/05/12 05:37:55;;;;;;;14.80;13.50;;;11.00;99.90;;;11.78;100.00;97629.03;5112585;28;20224;-63
2023/05/12 05:40:28;;;;;;;14.77;13.43;;;11.00;99.90;;;11.81;100.00;97626.63;5114835;28;20228;-64
2023/05/12 05:43:17;;;;;;;13.65;12.45;;;11.00;99.90;;;11.82;100.00;97630.97;5105372;28;20197;-64
2023/05/12 05:45:50;;;;;;;14.93;13.52;;;11.10;99.90;;;11.84;100.00;97627.66;5110923;28;20211;-64
2023/05/12 05:48:26;;;;;;;14.63;13.20;;;11.10;99.90;;;11.87;100.00;97630.38;5113770;29;20208;-64
2023/05/12 05:50:59;;;;;;;13.50;12.25;;;11.10;99.90;;;11.91;100.00;97629.75;5111496;28;20235;-63
2023/05/12 05:53:32;;;;;;;14.15;12.68;;;11.10;99.90;;;11.98;100.00;97632.59;5116900;28;20952;-64
2023/05/12 05:56:06;;;;;;;14.35;12.93;;;11.20;99.90;;;12.08;100.00;97633.13;5114745;29;20574;-63
2023/05/12 05:58:39;;;;;;;13.13;11.93;;;11.20;99.90;;;12.10;100.00;97634.06;5111251;28;20593;-64
2023/05/12 06:01:12;;;;;;;14.18;12.98;;;11.20;99.90;;;12.16;100.00;97638.56;5109280;28;20227;-64
2023/05/12 06:03:46;;;;;;;11.65;10.70;;;11.30;99.90;;;12.20;100.00;97639.63;5110850;29;20704;-63
2023/05/12 06:06:20;;;;;;;13.10;12.00;;;11.30;99.90;;;12.23;100.00;97634.63;5106986;28;20212;-64
2023/05/12 06:08:54;;;;;;;12.68;11.57;;;11.40;99.90;;;12.25;100.00;97633.03;5104464;28;20229;-64
2023/05/12 06:11:28;;;;;;;11.82;10.75;;;11.40;99.90;;;12.22;100.00;97638.91;5116239;29;20223;-64
2023/05/12 06:14:00;;;;;;;11.68;10.68;;;11.40;99.90;;;12.30;100.00;97637.53;5108059;28;20243;-63
2023/05/12 06:16:34;;;;;;;11.93;10.82;;;11.40;99.90;;;12.48;100.00;97644.34;5111754;29;20217;-64
2023/05/12 06:19:08;;;;;;;12.23;11.13;;;11.60;99.90;;;12.71;100.00;97640.28;5108036;28;20225;-64
2023/05/12 06:21:42;;;;;;;12.63;11.57;;;11.70;99.90;;;12.91;100.00;97644.59;5114856;28;20294;-64
2023/05/12 06:24:15;;;;;;;11.73;10.65;;;11.90;99.90;;;13.07;100.00;97635.88;5114656;28;20229;-64
2023/05/12 06:26:48;;;;;;;12.43;11.43;;;12.00;99.90;;;13.21;100.00;97634.78;5112684;28;20239;-63
2023/05/12 06:29:21;;;;;;;11.32;10.32;;;12.20;99.90;;;13.37;100.00;97638.91;5109462;29;20315;-64
2023/05/12 06:31:54;;;;;;;11.05;10.05;;;12.30;99.90;;;13.52;100.00;97644.69;5117854;28;20212;-62
2023/05/12 06:34:29;;;;;;;11.05;10.15;;;12.30;99.90;;;13.55;100.00;97643.06;5117190;28;20209;-65
2023/05/12 06:37:02;;;;;;;10.85;9.95;;;12.40;99.90;;;13.47;100.00;97638.47;5115035;28;20231;-63
2023/05/12 06:39:35;;;;;;;10.02;9.13;;;12.40;99.90;;;13.55;100.00;97641.38;5110334;28;20222;-64
2023/05/12 06:42:10;;;;;;;8.70;8.00;;;12.50;99.90;;;13.57;100.00;97650.03;5109806;28;20209;-63
2023/05/12 06:44:44;;;;;;;9.70;8.90;;;12.60;99.90;;;13.79;100.00;97640.63;5107611;28;20303;-64
2023/05/12 06:47:17;;;;;;;9.52;8.73;;;12.70;99.90;;;13.91;100.00;97639.44;5110412;29;20251;-64
2023/05/12 06:49:51;;;;;;;9.23;8.48;;;12.80;99.90;;;13.98;100.00;97638.00;5112939;28;20615;-64
2023/05/12 06:52:24;;;;;;;9.82;9.00;;;12.80;99.90;;;13.86;100.00;97640.94;5108010;28;20687;-64
2023/05/12 06:54:57;;;;;;;9.25;8.45;;;12.80;99.90;;;13.89;100.00;97640.19;5107504;28;20207;-65
2023/05/12 06:57:30;;;;;;;8.80;8.10;;;12.80;99.90;;;13.87;100.00;97652.09;5103580;28;20209;-64
2023/05/12 07:00:04;;;;;;;8.52;7.82;;;12.80;99.90;;;13.83;100.00;97639.97;5111609;28;20220;-64
2023/05/12 07:02:37;;;;;;;8.93;8.23;;;12.80;99.90;;;13.86;100.00;97645.22;5110703;28;20645;-65
2023/05/12 07:05:11;;;;;;;9.63;8.85;;;12.90;99.90;;;13.74;100.00;97649.03;5106411;28;20626;-64
2023/05/12 07:07:45;;;;;;;8.35;7.65;;;12.80;99.90;;;13.73;100.00;97643.81;5103491;28;20212;-63
2023/05/12 07:10:19;;;;;;;8.65;7.95;;;12.80;99.90;;;13.77;100.00;97643.16;5108662;28;20228;-63
2023/05/12 07:12:52;;;;;;;8.50;7.88;;;12.80;99.90;;;13.74;100.00;97645.59;5110074;28;20287;-64
2023/05/12 07:15:25;;;;;;;8.18;7.47;;;12.90;99.90;;;13.71;100.00;97638.63;5114578;28;20205;-63
2023/05/12 07:17:58;;;;;;;7.10;6.60;;;12.90;99.90;;;13.80;100.00;97643.28;5112612;28;20218;-63
2023/05/12 07:20:33;;;;;;;7.90;7.25;;;12.90;99.90;;;13.94;100.00;97639.56;5106580;28;20230;-63
2023/05/12 07:23:06;;;;;;;6.65;6.15;;;13.10;99.90;;;14.26;100.00;97641.66;5108186;28;20211;-64
2023/05/12 07:25:39;;;;;;;6.63;6.13;;;13.30;99.90;;;14.61;99.53;97636.19;5102956;28;20211;-64
2023/05/12 07:28:12;;;;;;;6.38;5.93;;;13.40;99.90;;;14.74;99.14;97629.81;5123107;28;20202;-64
2023/05/12 07:30:46;;;;;;;6.75;6.15;;;13.60;99.90;;;14.82;99.99;97628.41;5108350;28;20885;-64
2023/05/12 07:33:19;;;;;;;5.72;5.32;;;13.80;99.90;;;14.95;98.77;97631.44;5107580;28;20614;-65
2023/05/12 07:35:53;;;;;;;5.90;5.43;;;13.90;99.90;;;14.57;93.43;97636.91;5104409;28;20226;-63
2023/05/12 07:38:27;;;;;;;5.53;5.10;;;13.70;99.90;;;14.48;94.42;97635.63;5108919;28;20208;-63
2023/05/12 07:41:00;;;;;;;5.10;4.70;;;13.60;99.90;;;14.72;94.02;97626.31;5103368;28;20217;-64
2023/05/12 07:43:33;;;;;;;6.07;5.57;;;13.60;99.90;;;14.65;96.63;97626.91;5110354;28;20213;-64
2023/05/12 07:46:06;;;;;;;5.50;5.10;;;13.70;99.90;;;14.56;93.63;97632.56;5110607;28;20929;-65
2023/05/12 07:48:39;;;;;;;6.18;5.57;;;13.60;99.90;;;14.44;95.89;97626.94;5111741;28;20225;-64
2023/05/12 07:51:14;;;;;;;5.50;5.10;;;13.50;99.90;;;14.51;94.30;97628.94;5112827;28;20225;-64
2023/05/12 07:53:47;;;;;;;5.43;5.03;;;13.60;99.90;;;14.72;95.23;97628.88;5106994;28;20295;-64
2023/05/12 07:56:20;;;;;;;5.10;4.80;;;13.70;99.90;;;14.94;92.49;97627.97;5107861;28;20205;-65
2023/05/12 07:58:54;;;;;;;5.88;5.47;;;13.90;99.90;;;14.71;92.98;97624.56;5108032;28;20233;-65
2023/05/12 08:01:27;;;;;;;5.70;5.30;;;13.70;99.90;;;14.74;93.71;97623.81;5112235;29;20643;-65
2023/05/12 08:04:00;;;;;;;5.65;5.28;;;13.60;99.90;;;14.77;93.36;97619.66;5108283;28;20208;-62
2023/05/12 08:06:35;;;;;;;5.78;5.38;;;13.60;99.90;;;14.68;91.24;97621.88;5109708;28;20652;-64
2023/05/12 08:09:08;;;;;;;5.18;4.88;;;13.60;99.90;;;14.65;92.89;97626.91;5107937;28;20216;-64
2023/05/12 08:11:41;;;;;;;4.55;4.25;;;13.50;99.90;;;15.01;89.43;97629.06;5105225;28;20355;-65
2023/05/12 08:14:18;;;;;;;5.22;4.93;;;13.70;99.90;;;15.17;88.32;97631.38;5109020;29;20676;-64
2023/05/12 08:16:51;;;;;;;4.75;4.45;;;14.00;99.90;;;15.26;88.13;97628.25;5109025;28;20236;-64
2023/05/12 08:19:24;;;;;;;5.45;4.95;;;14.00;99.90;;;15.28;88.29;97630.06;5107066;28;20221;-64
2023/05/12 08:21:59;;;;;;;5.15;4.85;;;14.10;99.90;;;15.60;86.14;97635.44;5102860;28;20205;-64
2023/05/12 08:24:32;;;;;;;4.95;4.63;;;14.30;99.90;;;15.37;87.28;97629.50;5109025;28;20208;-65
2023/05/12 08:27:05;;;;;;;4.57;4.28;;;14.10;99.90;;;15.37;88.51;97631.19;5111131;28;20207;-62
2023/05/12 08:29:38;;;;;;;5.07;4.78;;;14.20;99.90;;;15.35;86.47;97636.28;5110874;28;20232;-64
2023/05/12 08:32:11;;;;;;;4.70;4.40;;;14.20;99.90;;;15.28;87.67;97635.22;5103165;28;20224;-64
2023/05/12 08:34:45;;;;;;;4.68;4.30;;;14.20;99.90;;;15.21;89.33;97640.06;5107051;28;20205;-63
2023/05/12 08:37:19;;;;;;;5.65;5.15;;;14.10;99.90;;;15.28;90.11;97634.31;5106025;28;20299;-63
2023/05/12 08:39:52;;;;;;;5.65;5.25;;;14.20;99.90;;;15.37;90.20;97636.34;5110967;28;20258;-65
2023/05/12 08:42:44;;;;;;;4.50;4.20;;;14.20;99.90;;;15.49;91.04;97634.19;5106296;28;20212;-63
2023/05/12 08:45:17;;;;;;;4.32;4.03;;;14.40;99.90;;;15.69;88.65;97635.75;5106539;28;20200;-65
2023/05/12 08:47:51;;;;;;;4.57;4.28;;;14.50;99.90;;;15.35;87.25;97636.28;5098853;28;20218;-63
2023/05/12 08:50:25;;;;;;;4.13;3.83;;;14.40;99.90;;;15.30;88.52;97633.53;5105371;28;20224;-64
2023/05/12 08:53:00;;;;;;;4.97;4.57;;;14.30;99.90;;;14.85;90.20;97638.81;5106967;28;20212;-64
2023/05/12 08:55:34;;;;;;;3.78;3.58;;;14.00;99.90;;;14.81;91.36;97636.94;5106245;28;20782;-64
2023/05/12 08:58:08;;;;;;;4.97;4.60;;;13.90;99.90;;;14.91;92.78;97643.31;5102431;28;20212;-64
2023/05/12 09:00:42;;;;;;;4.65;4.30;;;13.90;99.90;;;14.82;92.81;97643.84;5106454;28;20225;-64
2023/05/12 09:03:15;;;;;;;4.30;4.00;;;14.00;99.90;;;14.67;90.32;97645.84;5111973;28;20204;-64
2023/05/12 09:05:48;;;;;;;4.15;3.85;;;13.90;99.90;;;14.73;91.73;97646.06;5108981;28;20200;-64
2023/05/12 09:08:23;;;;;;;4.32;4.03;;;13.80;99.90;;;14.79;93.38;97642.84;5106644;28;20233;-63
2023/05/12 09:10:57;;;;;;;3.50;3.30;;;13.80;99.90;;;14.81;94.49;97647.22;5112582;29;20722;-63
2023/05/12 09:13:39;;;;;;;3.47;3.28;;;13.90;99.90;;;14.84;94.95;97641.31;5105949;28;20207;-65
2023/05/12 09:16:15;;;;;;;3.65;3.35;;;13.90;99.90;;;14.83;94.79;97642.16;5112267;28;20211;-64
2023/05/12 09:18:52;;;;;;;4.18;3.88;;;13.90;99.90;;;14.80;95.61;97644.63;5111096;28;20208;-64
2023/05/12 09:21:26;;;;;;;4.57;4.28;;;13.90;99.90;;;14.60;95.98;97646.44;5109931;28;20197;-65
2023/05/12 09:24:04;;;;;;;3.80;3.50;;;13.70;99.90;;;14.54;97.50;97641.06;5111646;29;20235;-64
2023/05/12 09:26:47;;;;;;;4.53;4.20;;;13.70;99.90;;;14.40;99.20;97649.09;5111391;28;20212;-64
2023/05/12 09:29:21;;;;;;;4.43;4.13;;;13.70;99.90;;;14.30;99.68;97654.69;5103024;28;20231;-65
2023/05/12 09:32:04;;;;;;;5.10;4.75;;;13.60;99.90;;;14.14;100.00;97660.06;5109294;28;20228;-64
2023/05/12 09:34:39;;;;;;;4.35;4.05;;;13.50;99.90;;;13.95;100.00;97661.88;5112597;28;20236;-64
2023/05/12 09:37:14;;;;;;;5.20;4.80;;;13.40;99.90;;;13.88;100.00;97659.88;5113379;28;20328;-64
2023/05/12 09:40:00;;;;;;;5.53;5.18;;;13.30;99.90;;;13.93;100.00;97660.06;5111250;28;20228;-64
2023/05/12 09:42:35;;;;;;;6.22;5.72;;;13.30;99.90;;;13.92;100.00;97659.19;5110159;28;20212;-64
2023/05/12 09:45:09;;;;;;;6.25;5.85;;;13.30;99.90;;;13.91;100.00;97659.13;5112838;28;20209;-64
2023/05/12 09:47:43;;;;;;;6.50;6.00;;;13.30;99.90;;;13.88;100.00;97662.47;5105451;28;20200;-64
2023/05/12 09:50:17;;;;;;;7.22;6.72;;;13.30;99.90;;;13.72;100.00;97665.19;5116332;29;20609;-64
2023/05/12 09:52:51;;;;;;;6.90;6.40;;;13.20;99.90;;;13.80;100.00;97662.97;5110871;28;20275;-68
2023/05/12 09:55:25;;;;;;;8.27;7.68;;;13.20;99.90;;;13.62;100.00;97665.63;5106558;28;21068;-64
2023/05/12 09:58:00;;;;;;;8.05;7.45;;;13.10;99.90;;;13.66;100.00;97665.81;5112063;28;20205;-62
2023/05/12 10:00:37;;;;;;;7.57;6.88;;;13.20;99.90;;;13.82;100.00;97664.78;5109421;28;20727;-64
2023/05/12 10:03:33;;;;;;;8.23;7.63;;;13.30;99.90;;;13.84;100.00;97660.56;5104199;28;20334;-62
2023/05/12 10:06:11;;;;;;;7.30;6.80;;;13.30;99.90;;;13.89;100.00;97658.19;5110195;28;20215;-64
2023/05/12 10:08:50;;;;;;;6.65;6.07;;;13.40;99.90;;;14.05;100.00;97669.94;5117218;28;20200;-64
2023/05/12 10:11:25;;;;;;;7.03;6.45;;;13.50;99.90;;;13.76;100.00;97667.06;5102883;28;20327;-63
2023/05/12 10:13:59;;;;;;;6.30;5.80;;;13.40;99.90;;;14.00;100.00;97674.91;5105490;28;20737;-64
2023/05/12 10:16:34;;;;;;;5.15;4.75;;;13.40;99.90;;;13.83;100.00;97674.22;5112369;28;20255;-65
2023/05/12 10:19:08;;;;;;;5.22;4.82;;;13.40;99.90;;;13.87;100.00;97670.97;5111277;28;20220;-63
2023/05/12 10:21:44;;;;;;;4.95;4.65;;;13.30;99.90;;;14.03;100.00;97671.59;5113475;28;20259;-65
2023/05/12 10:24:18;;;;;;;5.57;5.10;;;13.50;99.90;;;13.83;100.00;97669.09;5113024;28;20350;-65
2023/05/12 10:26:54;;;;;;;5.57;5.18;;;13.40;99.90;;;13.74;100.00;97672.16;5102562;28;20202;-62
2023/05/12 10:29:29;;;;;;;5.50;5.10;;;13.30;99.90;;;13.87;100.00;97672.66;5107181;28;20224;-62
2023/05/12 10:32:03;;;;;;;5.35;5.05;;;13.40;99.90;;;13.94;100.00;97667.84;5112950;28;20216;-64
2023/05/12 10:34:37;;;;;;;5.03;4.72;;;13.40;99.90;;;13.94;100.00;97666.97;5144680;28;20204;-63